Terminal Aerodrome Forecast
Issued by NWS Goodland, KS

Home | Current Version | Previous Version | Text Only | Print | Product List | Glossary On
Versions: 1 2 3 4 5 6 7 8 9 10 11 12 13 14 15 16 17 18 19 20 21
000
FTUS43 KGLD 231120
TAFGLD
TAF
KGLD 231120Z 2312/2412 14011KT 5SM BR OVC004
     FM231400 16014G21KT 6SM -DZ BR OVC003
     FM231700 15017G24KT 6SM -DZ OVC008
      TEMPO 2317/2319 OVC011
     FM231900 15018G25KT P6SM OVC011
     FM232300 14022G30KT P6SM VCTS OVC010CB=

USA.gov is the U.S. government's official web portal to all federal, state and local government web resources and services.